createdAt,value
2023-03-15T00:02:05.180Z,9.10
2023-03-15T00:04:33.167Z,9.10
2023-03-15T00:07:00.422Z,9.20
2023-03-15T00:09:27.465Z,9.20
2023-03-15T00:11:54.684Z,9.10
2023-03-15T00:14:21.910Z,9.20
2023-03-15T00:16:49.276Z,9.20
2023-03-15T00:19:16.128Z,9.30
2023-03-15T00:21:44.516Z,9.30
2023-03-15T00:24:11.713Z,9.30
2023-03-15T00:26:39.168Z,9.30
2023-03-15T00:29:06.018Z,9.30
2023-03-15T00:31:32.868Z,9.30
2023-03-15T00:34:00.533Z,9.30
2023-03-15T00:36:27.489Z,9.30
2023-03-15T00:38:56.422Z,9.30
2023-03-15T00:41:24.427Z,9.40
2023-03-15T00:43:52.056Z,9.40
2023-03-15T00:46:19.782Z,9.40
2023-03-15T00:48:51.533Z,9.30
2023-03-15T00:51:22.530Z,9.00
2023-03-15T00:53:51.055Z,8.70
2023-03-15T00:56:23.861Z,8.40
2023-03-15T00:58:53.016Z,8.00
2023-03-15T01:01:25.823Z,7.70
2023-03-15T01:03:52.746Z,7.40
2023-03-15T01:06:25.165Z,6.80
2023-03-15T01:08:52.510Z,6.60
2023-03-15T01:11:24.285Z,6.20
2023-03-15T01:13:56.689Z,5.80
2023-03-15T01:16:23.982Z,5.40
2023-03-15T01:18:53.993Z,5.30
2023-03-15T01:21:22.338Z,5.00
2023-03-15T01:23:49.632Z,4.70
2023-03-15T01:26:17.706Z,4.50
2023-03-15T01:28:44.946Z,4.30
2023-03-15T01:31:21.740Z,4.00
2023-03-15T01:33:48.755Z,4.00
2023-03-15T01:36:16.267Z,3.80
2023-03-15T01:38:43.269Z,3.70
2023-03-15T01:41:12.340Z,3.70
2023-03-15T01:43:39.223Z,3.60
2023-03-15T01:46:15.966Z,3.60
2023-03-15T01:49:06.909Z,3.50
2023-03-15T01:51:46.792Z,3.50
2023-03-15T01:54:20.769Z,3.50
2023-03-15T01:56:59.971Z,3.60
2023-03-15T01:59:41.816Z,3.50
2023-03-15T02:02:09.171Z,3.60
2023-03-15T02:04:40.495Z,3.40
2023-03-15T02:07:08.641Z,3.50
2023-03-15T02:09:44.365Z,3.50
2023-03-15T02:12:12.020Z,3.40
2023-03-15T02:14:39.649Z,3.50
2023-03-15T02:17:06.822Z,3.40
2023-03-15T02:19:57.578Z,3.40
2023-03-15T02:22:48.900Z,3.50
2023-03-15T02:25:25.119Z,3.60
2023-03-15T02:27:51.984Z,3.60
2023-03-15T02:30:18.946Z,3.60
2023-03-15T02:32:46.338Z,3.60
2023-03-15T02:35:13.327Z,3.60
2023-03-15T02:37:45.886Z,3.60
2023-03-15T02:40:20.545Z,3.50
2023-03-15T02:42:51.496Z,3.50
2023-03-15T02:45:18.439Z,3.60
2023-03-15T02:47:47.010Z,3.60
2023-03-15T02:50:13.911Z,3.70
2023-03-15T02:52:41.552Z,3.60
2023-03-15T02:55:09.259Z,3.60
2023-03-15T02:57:36.166Z,3.60
2023-03-15T03:00:13.222Z,3.60
2023-03-15T03:02:46.282Z,3.60
2023-03-15T03:05:14.780Z,3.60
2023-03-15T03:07:42.901Z,3.70
2023-03-15T03:10:12.158Z,3.70
2023-03-15T03:12:39.017Z,3.70
2023-03-15T03:15:06.566Z,3.70
2023-03-15T03:17:37.437Z,3.70
2023-03-15T03:20:09.905Z,3.70
2023-03-15T03:22:38.010Z,3.70
2023-03-15T03:25:06.760Z,3.80
2023-03-15T03:27:37.672Z,3.80
2023-03-15T03:30:10.835Z,3.80
2023-03-15T03:32:37.736Z,3.80
2023-03-15T03:35:04.786Z,3.70
2023-03-15T03:37:31.586Z,3.70
2023-03-15T03:39:58.840Z,3.70
2023-03-15T03:42:25.727Z,3.70
2023-03-15T03:44:54.446Z,3.60
2023-03-15T03:47:21.529Z,3.70
2023-03-15T03:49:51.504Z,3.80
2023-03-15T03:52:18.788Z,3.70
2023-03-15T03:54:45.591Z,3.80
2023-03-15T03:57:12.369Z,3.90
2023-03-15T03:59:39.149Z,3.90
2023-03-15T04:02:06.093Z,3.90
2023-03-15T04:04:32.986Z,4.00
2023-03-15T04:07:00.377Z,3.80
2023-03-15T04:09:27.298Z,3.80
2023-03-15T04:11:54.063Z,3.90
2023-03-15T04:14:20.934Z,4.00
2023-03-15T04:16:47.830Z,3.70
2023-03-15T04:19:14.663Z,3.70
2023-03-15T04:21:47.390Z,3.80
2023-03-15T04:24:14.885Z,3.80
2023-03-15T04:26:42.128Z,3.70
2023-03-15T04:29:11.801Z,3.70
2023-03-15T04:31:38.872Z,3.80
2023-03-15T04:34:08.660Z,3.70
2023-03-15T04:36:35.657Z,3.80
2023-03-15T04:39:05.989Z,3.80
2023-03-15T04:41:36.786Z,3.90
2023-03-15T04:44:04.238Z,3.70
2023-03-15T04:46:34.176Z,3.70
2023-03-15T04:49:01.802Z,3.70
2023-03-15T04:51:29.314Z,3.60
2023-03-15T04:53:56.137Z,3.70
2023-03-15T04:56:22.965Z,3.70
2023-03-15T04:58:49.912Z,3.70
2023-03-15T05:01:17.055Z,3.60
2023-03-15T05:03:43.929Z,3.70
2023-03-15T05:06:10.799Z,3.60
2023-03-15T05:08:37.999Z,3.60
2023-03-15T05:11:05.578Z,3.60
2023-03-15T05:13:32.406Z,3.60
2023-03-15T05:15:59.785Z,3.60
2023-03-15T05:18:26.607Z,3.70
2023-03-15T05:20:55.940Z,3.70
2023-03-15T05:23:24.147Z,3.80
2023-03-15T05:25:54.157Z,4.00
2023-03-15T05:28:25.569Z,3.80
2023-03-15T05:30:53.236Z,4.00
2023-03-15T05:33:20.922Z,3.70
2023-03-15T05:35:48.828Z,3.90
2023-03-15T05:38:15.970Z,3.70
2023-03-15T05:40:46.705Z,3.70
2023-03-15T05:43:13.661Z,3.90
2023-03-15T05:45:40.958Z,3.80
2023-03-15T05:48:08.371Z,3.70
2023-03-15T05:50:35.228Z,3.80
2023-03-15T05:53:02.139Z,3.90
2023-03-15T05:55:28.956Z,3.90
2023-03-15T05:57:55.788Z,3.60
2023-03-15T06:00:22.721Z,3.90
2023-03-15T06:02:49.704Z,3.80
2023-03-15T06:05:16.918Z,3.70
2023-03-15T06:07:46.804Z,3.80
2023-03-15T06:10:14.367Z,3.70
2023-03-15T06:12:41.326Z,3.80
2023-03-15T06:15:08.738Z,4.00
2023-03-15T06:26:07.426Z,3.70
2023-03-15T06:28:40.431Z,3.90
2023-03-15T06:31:11.818Z,3.80
2023-03-15T06:33:40.239Z,3.90
2023-03-15T06:36:07.638Z,3.90
2023-03-15T06:46:40.673Z,3.90
2023-03-15T06:49:07.736Z,4.10
2023-03-15T06:51:34.586Z,4.10
2023-03-15T06:54:04.468Z,4.20
2023-03-15T06:56:34.776Z,4.20
2023-03-15T06:59:01.568Z,4.30
2023-03-15T07:01:28.566Z,4.30
2023-03-15T07:03:55.543Z,4.30
2023-03-15T07:06:22.348Z,4.40
2023-03-15T07:08:49.193Z,4.40
2023-03-15T07:11:16.025Z,4.70
2023-03-15T07:13:43.721Z,4.60
2023-03-15T07:16:10.553Z,4.50
2023-03-15T07:18:37.501Z,4.60
2023-03-15T07:21:05.664Z,4.40
2023-03-15T07:23:32.486Z,4.20
2023-03-15T07:25:59.664Z,4.10
2023-03-15T07:28:27.370Z,4.30
2023-03-15T07:30:59.281Z,4.30
2023-03-15T07:33:27.720Z,4.30
2023-03-15T07:35:55.360Z,4.30
2023-03-15T07:38:24.009Z,4.20
2023-03-15T07:40:50.971Z,4.20
2023-03-15T07:43:17.926Z,4.20
2023-03-15T07:45:44.841Z,4.30
2023-03-15T07:48:11.766Z,4.30
2023-03-15T07:50:39.087Z,4.30
2023-03-15T07:53:06.387Z,4.10
2023-03-15T07:55:34.475Z,4.20
2023-03-15T07:58:02.170Z,4.20
2023-03-15T08:00:30.155Z,4.30
2023-03-15T08:02:57.129Z,4.30
2023-03-15T08:05:25.380Z,4.30
2023-03-15T08:07:52.994Z,4.30
2023-03-15T08:10:20.435Z,4.30
2023-03-15T08:12:47.306Z,4.40
2023-03-15T08:15:15.276Z,4.60
2023-03-15T08:17:42.792Z,4.50
2023-03-15T08:20:17.644Z,4.60
2023-03-15T08:22:46.560Z,4.50
2023-03-15T08:25:16.226Z,4.70
2023-03-15T08:27:43.256Z,4.80
2023-03-15T08:30:15.490Z,4.40
2023-03-15T08:32:44.430Z,4.40
2023-03-15T08:35:15.631Z,4.50
2023-03-15T08:37:47.057Z,4.40
2023-03-15T08:40:16.158Z,4.50
2023-03-15T08:42:43.040Z,4.50
2023-03-15T08:45:10.507Z,4.60
2023-03-15T08:47:38.410Z,4.50
2023-03-15T08:50:16.800Z,4.90
2023-03-15T08:52:44.041Z,4.60
2023-03-15T08:55:14.595Z,4.70
2023-03-15T08:57:43.006Z,4.60
2023-03-15T09:00:23.070Z,5.10
2023-03-15T09:02:52.574Z,5.20
2023-03-15T09:05:21.301Z,5.30
2023-03-15T09:07:48.763Z,5.10
2023-03-15T09:10:17.529Z,5.10
2023-03-15T09:12:47.425Z,5.20
2023-03-15T09:15:14.759Z,5.40
2023-03-15T09:17:42.132Z,5.20
2023-03-15T09:20:19.174Z,5.20
2023-03-15T09:22:57.677Z,5.50
2023-03-15T09:25:25.862Z,6.20
2023-03-15T09:27:53.353Z,6.50
2023-03-15T09:30:21.046Z,6.60
2023-03-15T09:32:48.217Z,6.80
2023-03-15T09:35:17.379Z,6.30
2023-03-15T09:37:44.399Z,6.50
2023-03-15T09:40:16.439Z,6.90
2023-03-15T09:43:06.756Z,7.00
2023-03-15T09:45:58.675Z,7.10
2023-03-15T09:48:43.842Z,7.00
2023-03-15T09:51:17.741Z,7.30
2023-03-15T09:53:56.445Z,7.30
2023-03-15T09:56:31.088Z,7.10
2023-03-15T09:59:02.814Z,7.30
2023-03-15T10:01:32.271Z,7.40
2023-03-15T10:04:08.081Z,7.30
2023-03-15T10:07:16.992Z,7.40
2023-03-15T10:09:45.881Z,7.90
2023-03-15T10:12:14.034Z,7.90
2023-03-15T10:15:02.069Z,7.50
2023-03-15T10:17:47.716Z,7.70
2023-03-15T10:20:24.056Z,7.80
2023-03-15T10:23:06.859Z,7.80
2023-03-15T10:25:37.261Z,7.00
2023-03-15T10:28:17.241Z,6.90
2023-03-15T10:30:52.543Z,7.70
2023-03-15T10:33:38.245Z,7.80
2023-03-15T10:36:18.539Z,8.00
2023-03-15T10:38:46.420Z,8.20
2023-03-15T10:41:29.087Z,8.00
2023-03-15T10:44:00.458Z,8.10
2023-03-15T10:46:28.404Z,8.50
2023-03-15T10:49:00.706Z,9.00
2023-03-15T10:51:31.508Z,9.80
2023-03-15T10:54:13.336Z,9.50
2023-03-15T10:56:59.330Z,9.60
2023-03-15T10:59:28.791Z,9.90
2023-03-15T11:02:16.686Z,9.70
2023-03-15T11:04:48.302Z,9.40
2023-03-15T11:07:15.181Z,9.20
2023-03-15T11:09:58.703Z,8.80
2023-03-15T11:12:29.477Z,8.70
2023-03-15T11:15:00.465Z,8.50
2023-03-15T11:17:31.444Z,8.60
2023-03-15T11:20:13.167Z,8.60
2023-03-15T11:22:40.366Z,8.80
2023-03-15T11:25:20.663Z,8.40
2023-03-15T11:27:53.609Z,8.30
2023-03-15T11:30:27.188Z,8.30
2023-03-15T11:32:54.590Z,8.50
2023-03-15T11:35:38.687Z,8.80
2023-03-15T11:38:49.442Z,8.90
2023-03-15T11:41:36.716Z,8.80
2023-03-15T11:44:06.168Z,8.60
2023-03-15T11:47:03.832Z,8.70
2023-03-15T11:49:37.833Z,8.90
2023-03-15T11:52:08.409Z,8.60
2023-03-15T11:54:35.297Z,8.40
2023-03-15T11:57:06.709Z,8.70
2023-03-15T11:59:40.534Z,9.10
2023-03-15T12:02:10.183Z,9.70
2023-03-15T12:05:26.746Z,9.10
2023-03-15T12:11:44.566Z,8.70
2023-03-15T12:14:41.072Z,9.10
2023-03-15T12:17:28.797Z,9.50
2023-03-15T12:20:12.074Z,9.30
2023-03-15T12:22:53.092Z,9.20
2023-03-15T12:25:54.359Z,8.50
2023-03-15T12:28:53.514Z,8.10
2023-03-15T12:32:14.800Z,7.80
2023-03-15T12:34:58.277Z,7.70
2023-03-15T12:37:39.158Z,7.30
2023-03-15T12:40:26.860Z,7.50
2023-03-15T12:42:57.434Z,7.20
2023-03-15T12:45:37.371Z,7.40
2023-03-15T12:48:12.941Z,7.60
2023-03-15T12:50:45.960Z,7.70
2023-03-15T12:53:31.244Z,7.50
2023-03-15T13:01:29.350Z,7.10
2023-03-15T13:03:58.553Z,7.10
2023-03-15T13:06:37.657Z,7.30
2023-03-15T13:09:41.688Z,7.10
2023-03-15T13:12:23.901Z,7.20
2023-03-15T13:15:24.625Z,6.90
2023-03-15T13:18:03.771Z,7.00
2023-03-15T13:20:48.495Z,6.70
2023-03-15T13:23:30.051Z,6.60
2023-03-15T13:26:19.535Z,6.60
2023-03-15T13:29:15.215Z,6.80
2023-03-15T13:31:45.360Z,6.80
2023-03-15T13:34:20.807Z,6.90
2023-03-15T13:36:58.998Z,7.40
2023-03-15T13:39:33.824Z,7.20
2023-03-15T13:42:07.005Z,7.00
2023-03-15T13:44:33.891Z,6.70
2023-03-15T13:47:00.928Z,6.70
2023-03-15T13:49:35.044Z,6.60
2023-03-15T13:52:12.162Z,6.70
2023-03-15T13:54:40.414Z,6.60
2023-03-15T13:57:12.950Z,6.70
2023-03-15T14:00:07.056Z,6.60
2023-03-15T14:02:37.401Z,6.30
2023-03-15T14:05:09.325Z,6.30
2023-03-15T14:07:36.147Z,6.30
2023-03-15T14:10:27.607Z,6.40
2023-03-15T14:12:57.328Z,6.40
2023-03-15T14:15:26.070Z,6.70
2023-03-15T14:18:08.290Z,7.10
2023-03-15T14:20:47.079Z,7.50
2023-03-15T14:23:21.894Z,7.50
2023-03-15T14:25:54.877Z,7.40
2023-03-15T14:28:22.199Z,7.70
2023-03-15T14:30:55.194Z,7.90
2023-03-15T14:33:42.128Z,7.70
2023-03-15T14:36:23.670Z,7.60
2023-03-15T14:38:56.994Z,7.30
2023-03-15T14:41:33.510Z,7.10
2023-03-15T14:44:01.618Z,7.20
2023-03-15T14:46:30.663Z,7.00
2023-03-15T14:48:57.677Z,6.80
2023-03-15T14:51:25.774Z,6.60
2023-03-15T14:53:58.786Z,6.40
2023-03-15T14:56:26.268Z,6.40
2023-03-15T14:58:56.421Z,6.40
2023-03-15T15:01:27.332Z,6.30
2023-03-15T15:04:01.752Z,6.40
2023-03-15T15:06:32.298Z,6.30
2023-03-15T15:09:01.550Z,6.20
2023-03-15T15:11:28.553Z,5.90
2023-03-15T15:13:56.676Z,5.90
2023-03-15T15:16:23.749Z,5.90
2023-03-15T15:18:50.705Z,5.90
2023-03-15T15:21:33.872Z,5.90
2023-03-15T15:24:03.899Z,5.90
2023-03-15T15:26:32.291Z,5.80
2023-03-15T15:29:00.826Z,5.60
2023-03-15T15:31:29.866Z,5.50
2023-03-15T15:33:57.341Z,5.40
2023-03-15T15:36:27.765Z,5.40
2023-03-15T15:38:55.294Z,5.40
2023-03-15T15:41:31.470Z,5.40
2023-03-15T15:44:00.601Z,5.30
2023-03-15T15:46:27.857Z,5.20
2023-03-15T15:48:54.867Z,5.20
2023-03-15T15:51:30.546Z,5.30
2023-03-15T15:54:01.576Z,5.30
2023-03-15T15:56:44.161Z,5.40
2023-03-15T15:59:17.864Z,5.30
2023-03-15T16:01:59.381Z,5.10
2023-03-15T16:04:27.719Z,5.00
2023-03-15T16:06:58.664Z,4.90
2023-03-15T16:09:28.322Z,4.80
2023-03-15T16:11:55.933Z,4.70
2023-03-15T16:14:22.817Z,4.80
2023-03-15T16:16:50.102Z,4.80
2023-03-15T16:19:16.890Z,4.80
2023-03-15T16:21:49.822Z,4.70
2023-03-15T16:24:24.491Z,4.60
2023-03-15T16:26:53.320Z,4.60
2023-03-15T16:29:23.608Z,4.60
2023-03-15T16:32:10.092Z,4.50
2023-03-15T16:34:41.638Z,4.40
2023-03-15T16:37:18.122Z,4.40
2023-03-15T16:39:47.994Z,4.40
2023-03-15T16:42:16.334Z,4.40
2023-03-15T16:44:43.365Z,4.40
2023-03-15T16:47:11.207Z,4.40
2023-03-15T16:49:38.282Z,4.30
2023-03-15T16:52:08.806Z,4.20
2023-03-15T16:54:41.380Z,4.10
2023-03-15T16:57:30.284Z,4.10
2023-03-15T16:59:57.377Z,4.20
2023-03-15T17:02:29.817Z,4.10
2023-03-15T17:05:20.049Z,4.10
2023-03-15T17:07:49.298Z,4.00
2023-03-15T17:10:38.037Z,4.10
2023-03-15T17:13:05.168Z,4.00
2023-03-15T17:15:32.312Z,4.10
2023-03-15T17:18:00.427Z,4.00
2023-03-15T17:20:29.422Z,3.90
2023-03-15T17:23:04.420Z,3.90
2023-03-15T17:25:32.433Z,4.00
2023-03-15T17:30:59.599Z,3.80
2023-03-15T17:33:32.341Z,3.80
2023-03-15T17:35:59.607Z,3.80
2023-03-15T17:38:32.784Z,3.70
2023-03-15T17:40:59.800Z,3.70
2023-03-15T17:43:26.790Z,3.70
2023-03-15T17:45:53.695Z,3.90
2023-03-15T17:48:21.091Z,3.70
2023-03-15T17:50:47.942Z,3.60
2023-03-15T17:53:17.916Z,3.50
2023-03-15T17:55:46.801Z,3.70
2023-03-15T17:58:36.760Z,3.50
2023-03-15T18:01:04.793Z,3.40
2023-03-15T18:03:32.234Z,3.30
2023-03-15T18:06:01.584Z,3.40
2023-03-15T18:08:28.484Z,3.30
2023-03-15T18:10:55.791Z,3.30
2023-03-15T18:13:23.616Z,3.30
2023-03-15T18:15:51.592Z,3.30
2023-03-15T18:18:19.520Z,3.40
2023-03-15T18:20:47.471Z,3.40
2023-03-15T18:23:16.496Z,3.40
2023-03-15T18:25:44.094Z,3.20
2023-03-15T18:28:11.564Z,3.00
2023-03-15T18:30:41.691Z,3.20
2023-03-15T18:33:08.763Z,3.00
2023-03-15T18:35:36.974Z,3.00
2023-03-15T18:38:05.016Z,2.90
2023-03-15T18:40:34.045Z,2.80
2023-03-15T18:43:01.481Z,2.90
2023-03-15T18:45:34.028Z,2.90
2023-03-15T18:48:15.661Z,2.80
2023-03-15T18:50:52.281Z,3.10
2023-03-15T18:53:19.767Z,2.90
2023-03-15T18:55:46.624Z,3.00
2023-03-15T18:58:13.589Z,3.00
2023-03-15T19:00:41.575Z,3.10
2023-03-15T19:03:08.838Z,3.10
2023-03-15T19:05:42.147Z,2.90
2023-03-15T19:08:10.170Z,2.80
2023-03-15T19:10:37.452Z,2.70
2023-03-15T19:13:04.891Z,2.60
2023-03-15T19:15:34.994Z,2.80
2023-03-15T19:18:02.432Z,2.50
2023-03-15T19:20:38.210Z,2.50
2023-03-15T19:23:05.219Z,2.50
2023-03-15T19:25:32.082Z,2.50
2023-03-15T19:27:58.923Z,2.40
2023-03-15T19:30:27.631Z,2.40
2023-03-15T19:32:55.214Z,2.50
2023-03-15T19:35:22.363Z,2.50
2023-03-15T19:37:58.377Z,2.40
2023-03-15T19:40:25.581Z,2.30
2023-03-15T19:42:52.707Z,2.50
2023-03-15T19:45:19.867Z,2.30
2023-03-15T19:47:47.346Z,2.40
2023-03-15T19:50:34.093Z,2.30
2023-03-15T20:02:25.166Z,2.10
2023-03-15T20:05:26.990Z,2.20
2023-03-15T20:08:39.437Z,2.10
2023-03-15T20:23:57.424Z,2.00
2023-03-15T20:26:25.305Z,2.20
2023-03-15T20:28:52.786Z,2.00
2023-03-15T20:31:20.138Z,2.10
2023-03-15T20:33:50.911Z,2.00
2023-03-15T20:36:19.707Z,2.10
2023-03-15T20:38:49.690Z,2.10
2023-03-15T20:41:22.532Z,2.10
2023-03-15T20:43:49.386Z,2.10
2023-03-15T20:46:22.886Z,2.00
2023-03-15T20:48:49.894Z,2.10
2023-03-15T21:00:50.890Z,2.00
2023-03-15T21:10:12.272Z,2.00
2023-03-15T21:13:09.535Z,1.90
2023-03-15T21:15:59.119Z,2.10
2023-03-15T21:18:26.196Z,2.10
2023-03-15T21:25:01.497Z,2.20
2023-03-15T21:27:28.622Z,2.10
2023-03-15T21:29:55.692Z,2.00
2023-03-15T21:32:22.821Z,1.90
2023-03-15T21:34:49.935Z,1.90
2023-03-15T21:37:17.259Z,1.90
2023-03-15T21:39:44.116Z,1.80
2023-03-15T21:42:10.966Z,1.80
2023-03-15T21:44:38.105Z,1.80
2023-03-15T21:47:05.741Z,1.80
2023-03-15T21:49:32.902Z,1.80
2023-03-15T21:52:00.577Z,1.80
2023-03-15T21:54:29.253Z,1.80
2023-03-15T21:56:56.830Z,1.90
2023-03-15T21:59:27.911Z,1.80
2023-03-15T22:01:55.911Z,1.80
2023-03-15T22:04:37.294Z,1.80
2023-03-15T22:07:04.231Z,1.90
2023-03-15T22:09:31.182Z,1.90
2023-03-15T22:11:57.981Z,1.80
2023-03-15T22:14:24.860Z,2.00
2023-03-15T22:16:54.619Z,1.80
2023-03-15T22:19:21.690Z,1.70
2023-03-15T22:21:48.667Z,1.70
2023-03-15T22:24:15.547Z,1.70
2023-03-15T22:26:43.318Z,1.80
2023-03-15T22:29:11.018Z,1.80
2023-03-15T22:31:39.837Z,1.80
2023-03-15T22:34:06.829Z,1.70
2023-03-15T22:36:48.579Z,1.70
2023-03-15T22:39:26.206Z,1.70
2023-03-15T22:41:53.146Z,1.70
2023-03-15T22:44:20.097Z,1.50
2023-03-15T22:46:53.040Z,1.70
2023-03-15T22:49:20.020Z,1.50
2023-03-15T22:51:46.841Z,1.60
2023-03-15T22:54:13.878Z,1.60
2023-03-15T22:56:41.149Z,1.80
2023-03-15T22:59:07.962Z,1.60
2023-03-15T23:01:34.783Z,1.60
2023-03-15T23:04:08.178Z,1.60
2023-03-15T23:06:35.134Z,1.60
2023-03-15T23:09:01.941Z,1.50
2023-03-15T23:11:28.781Z,1.50
2023-03-15T23:13:55.706Z,1.40
2023-03-15T23:16:23.512Z,1.40
2023-03-15T23:18:50.446Z,1.30
2023-03-15T23:21:17.335Z,1.30
2023-03-15T23:23:44.286Z,1.40
2023-03-15T23:26:13.048Z,1.20
2023-03-15T23:28:40.027Z,1.30
2023-03-15T23:31:07.699Z,1.30
2023-03-15T23:33:37.900Z,1.30
2023-03-15T23:36:07.804Z,1.30
2023-03-15T23:38:34.903Z,1.40
2023-03-15T23:41:02.730Z,1.30
2023-03-15T23:43:29.885Z,1.20
2023-03-15T23:45:58.337Z,1.30
2023-03-15T23:48:26.284Z,1.20
2023-03-15T23:50:58.075Z,1.20
2023-03-15T23:53:25.854Z,1.20
2023-03-15T23:55:52.902Z,1.10
2023-03-15T23:58:20.756Z,1.00
